Time;durP1;ratioP1;P1;durP2;ratioP2;P2;SDS_P1;SDS_P2;PMS_P1;PMS_P2;Temp;Humidity;BMP_temperature;BMP_pressure;BME280_temperature;BME280_humidity;BME280_pressure;Samples;Min_cycle;Max_cycle;Signal;HPM_P1;HPM_P2
2023/08/20 00:01:51;;;;;;;;;;;;;;;;;;5047693;28;20402;-89
2023/08/20 00:04:21;;;;;;;;;;;;;;;;;;5048837;28;20269;-89
2023/08/20 00:06:47;;;;;;;;;;;;;;;;;;5066022;28;19935;-89
2023/08/20 00:09:12;;;;;;;;;;;;;;;;;;5049021;28;20295;-89
2023/08/20 00:11:41;;;;;;;;;;;;;;;;;;5050813;28;20023;-88
2023/08/20 00:14:07;;;;;;;;;;;;;;;;;;5052399;28;20191;-88
2023/08/20 00:16:33;;;;;;;;;;;;;;;;;;5062974;28;20300;-89
2023/08/20 00:18:59;;;;;;;;;;;;;;;;;;5045777;28;20026;-89
2023/08/20 00:21:26;;;;;;;;;;;;;;;;;;5045981;28;19928;-88
2023/08/20 00:23:52;;;;;;;;;;;;;;;;;;5064052;28;19924;-88
2023/08/20 00:26:18;;;;;;;;;;;;;;;;;;5037412;28;19928;-87
2023/08/20 00:28:44;;;;;;;;;;;;;;;;;;5063229;28;20015;-88
2023/08/20 00:31:10;;;;;;;;;;;;;;;;;;5062109;28;20307;-89
2023/08/20 00:33:36;;;;;;;;;;;;;;;;;;5059517;28;19935;-88
2023/08/20 00:36:02;;;;;;;;;;;;;;;;;;5045936;28;19932;-88
2023/08/20 00:38:28;;;;;;;;;;;;;;;;;;5058656;28;20391;-89
2023/08/20 00:40:54;;;;;;;;;;;;;;;;;;5045983;28;19924;-88
2023/08/20 00:43:20;;;;;;;;;;;;;;;;;;5060647;28;19935;-89
2023/08/20 00:45:46;;;;;;;;;;;;;;;;;;5059692;28;20418;-89
2023/08/20 00:48:12;;;;;;;;;;;;;;;;;;5044814;28;20085;-89
2023/08/20 00:50:38;;;;;;;;;;;;;;;;;;5062274;28;19982;-89
2023/08/20 00:53:04;;;;;;;;;;;;;;;;;;5062137;28;19939;-90
2023/08/20 00:55:30;;;;;;;;;;;;;;;;;;5061862;28;19924;-91
2023/08/20 00:57:56;;;;;;;;;;;;;;;;;;5057708;28;19958;-89
2023/08/20 01:00:22;;;;;;;;;;;;;;;;;;5063514;28;19928;-89
2023/08/20 01:02:48;;;;;;;;;;;;;;;;;;5048843;28;19928;-89
2023/08/20 01:05:14;;;;;;;;;;;;;;;;;;5064549;28;20015;-90
2023/08/20 01:07:40;;;;;;;;;;;;;;;;;;5044727;28;20446;-89
2023/08/20 01:10:06;;;;;;;;;;;;;;;;;;5062482;28;20295;-90
2023/08/20 01:12:32;;;;;;;;;;;;;;;;;;5060797;28;19935;-90
2023/08/20 01:14:58;;;;;;;;;;;;;;;;;;5061885;28;20280;-89
2023/08/20 01:17:24;;;;;;;;;;;;;;;;;;5062056;28;20399;-90
2023/08/20 01:19:50;;;;;;;;;;;;;;;;;;5042557;28;19924;-88
2023/08/20 01:22:16;;;;;;;;;;;;;;;;;;5064789;28;19951;-88
2023/08/20 01:24:42;;;;;;;;;;;;;;;;;;5047281;28;19928;-87
2023/08/20 01:27:11;;;;;;;;;;;;;;;;;;5058900;28;19937;-89
2023/08/20 01:29:37;;;;;;;;;;;;;;;;;;5043400;28;19929;-87
2023/08/20 01:32:03;;;;;;;;;;;;;;;;;;5046692;28;19936;-88
2023/08/20 01:34:29;;;;;;;;;;;;;;;;;;5062057;28;19929;-89
2023/08/20 01:36:55;;;;;;;;;;;;;;;;;;5043801;28;19939;-88
2023/08/20 01:39:21;;;;;;;;;;;;;;;;;;5060066;28;19944;-89
2023/08/20 01:41:47;;;;;;;;;;;;;;;;;;5066596;28;19931;-88
2023/08/20 01:44:13;;;;;;;;;;;;;;;;;;5046619;28;19975;-89
2023/08/20 01:46:38;;;;;;;;;;;;;;;;;;5061137;28;19967;-88
2023/08/20 01:49:04;;;;;;;;;;;;;;;;;;5043837;28;20004;-88
2023/08/20 01:51:31;;;;;;;;;;;;;;;;;;5046113;28;19929;-88
2023/08/20 01:53:57;;;;;;;;;;;;;;;;;;5047888;28;19934;-88
2023/08/20 01:56:23;;;;;;;;;;;;;;;;;;5046089;28;20042;-88
2023/08/20 01:58:49;;;;;;;;;;;;;;;;;;5063034;28;20023;-88
2023/08/20 02:01:14;;;;;;;;;;;;;;;;;;5047145;28;20520;-88
2023/08/20 02:03:40;;;;;;;;;;;;;;;;;;5044308;28;19929;-88
2023/08/20 02:06:06;;;;;;;;;;;;;;;;;;5043227;28;19967;-88
2023/08/20 02:08:32;;;;;;;;;;;;;;;;;;5045819;28;20066;-88
2023/08/20 02:10:58;;;;;;;;;;;;;;;;;;5061063;28;19936;-88
2023/08/20 02:13:24;;;;;;;;;;;;;;;;;;5037414;28;20246;-89
2023/08/20 02:15:50;;;;;;;;;;;;;;;;;;5046266;28;19928;-89
2023/08/20 02:18:16;;;;;;;;;;;;;;;;;;5060325;28;19928;-90
2023/08/20 02:20:45;;;;;;;;;;;;;;;;;;5046381;28;19920;-87
2023/08/20 02:23:11;;;;;;;;;;;;;;;;;;5035972;28;19929;-88
2023/08/20 02:25:37;;;;;;;;;;;;;;;;;;5063516;28;20291;-89
2023/08/20 02:28:03;;;;;;;;;;;;;;;;;;5065066;28;20027;-88
2023/08/20 02:30:29;;;;;;;;;;;;;;;;;;5047123;28;20383;-90
2023/08/20 02:32:55;;;;;;;;;;;;;;;;;;5036951;28;20452;-90
2023/08/20 02:35:21;;;;;;;;;;;;;;;;;;5063029;28;19928;-89
2023/08/20 02:37:47;;;;;;;;;;;;;;;;;;5048995;28;19934;-92
2023/08/20 02:40:14;;;;;;;;;;;;;;;;;;5049374;28;19981;-90
2023/08/20 02:42:40;;;;;;;;;;;;;;;;;;5067778;28;20319;-90
2023/08/20 02:45:06;;;;;;;;;;;;;;;;;;5051006;28;19928;-90
2023/08/20 02:47:32;;;;;;;;;;;;;;;;;;5057346;28;19949;-90
2023/08/20 02:49:58;;;;;;;;;;;;;;;;;;5068927;28;19939;-91
2023/08/20 02:52:23;;;;;;;;;;;;;;;;;;5049930;28;19932;-88
2023/08/20 02:54:49;;;;;;;;;;;;;;;;;;5048080;28;19989;-89
2023/08/20 02:57:15;;;;;;;;;;;;;;;;;;5067645;28;20164;-88
2023/08/20 02:59:41;;;;;;;;;;;;;;;;;;5049332;28;19982;-88
2023/08/20 03:02:07;;;;;;;;;;;;;;;;;;5048880;28;19934;-90
2023/08/20 03:04:33;;;;;;;;;;;;;;;;;;5065715;28;19968;-89
2023/08/20 03:07:00;;;;;;;;;;;;;;;;;;5046992;28;19929;-89
2023/08/20 03:09:26;;;;;;;;;;;;;;;;;;5048306;28;20331;-89
2023/08/20 03:11:52;;;;;;;;;;;;;;;;;;5049831;28;20352;-88
2023/08/20 03:14:18;;;;;;;;;;;;;;;;;;5061706;28;19978;-89
2023/08/20 03:16:44;;;;;;;;;;;;;;;;;;5049522;28;19964;-89
2023/08/20 03:19:10;;;;;;;;;;;;;;;;;;5050083;28;20336;-88
2023/08/20 03:21:39;;;;;;;;;;;;;;;;;;5047904;28;20015;-91
2023/08/20 03:24:05;;;;;;;;;;;;;;;;;;5048683;28;20435;-91
2023/08/20 03:26:31;;;;;;;;;;;;;;;;;;5053188;28;20016;-90
2023/08/20 03:28:57;;;;;;;;;;;;;;;;;;5052555;28;19925;-90
2023/08/20 03:31:23;;;;;;;;;;;;;;;;;;5067564;28;19935;-90
2023/08/20 03:33:52;;;;;;;;;;;;;;;;;;5050269;28;19974;-90
2023/08/20 03:36:18;;;;;;;;;;;;;;;;;;5049212;28;19936;-89
2023/08/20 03:38:44;;;;;;;;;;;;;;;;;;5051310;28;20288;-89
2023/08/20 03:41:10;;;;;;;;;;;;;;;;;;5043646;28;19928;-89
2023/08/20 03:43:36;;;;;;;;;;;;;;;;;;5050067;28;19924;-90
2023/08/20 03:46:02;;;;;;;;;;;;;;;;;;5050388;28;19928;-89
2023/08/20 03:48:28;;;;;;;;;;;;;;;;;;5049184;28;20414;-89
2023/08/20 03:50:54;;;;;;;;;;;;;;;;;;5064095;28;19976;-89
2023/08/20 03:53:20;;;;;;;;;;;;;;;;;;5066280;28;20019;-89
2023/08/20 03:55:46;;;;;;;;;;;;;;;;;;5064750;28;20015;-90
2023/08/20 03:58:12;;;;;;;;;;;;;;;;;;5063110;28;19932;-89
2023/08/20 04:00:38;;;;;;;;;;;;;;;;;;5047461;28;19935;-90
2023/08/20 04:03:04;;;;;;;;;;;;;;;;;;5063243;28;19936;-88
2023/08/20 04:05:29;;;;;;;;;;;;;;;;;;5063901;28;20024;-90
2023/08/20 04:07:55;;;;;;;;;;;;;;;;;;5064415;28;20343;-90
2023/08/20 04:10:21;;;;;;;;;;;;;;;;;;5062620;28;20388;-91
2023/08/20 04:12:47;;;;;;;;;;;;;;;;;;5057408;28;20719;-90
2023/08/20 04:15:13;;;;;;;;;;;;;;;;;;5047679;28;20199;-92
2023/08/20 04:17:39;;;;;;;;;;;;;;;;;;5052909;28;19935;-91
2023/08/20 04:20:07;;;;;;;;;;;;;;;;;;5069112;28;19929;-93
2023/08/20 04:22:33;;;;;;;;;;;;;;;;;;5069683;28;19978;-92
2023/08/20 04:24:59;;;;;;;;;;;;;;;;;;5058581;28;19928;-91
2023/08/20 04:27:25;;;;;;;;;;;;;;;;;;5045514;28;19951;-90
2023/08/20 04:29:51;;;;;;;;;;;;;;;;;;5043475;28;20453;-90
2023/08/20 04:32:20;;;;;;;;;;;;;;;;;;5037438;28;19928;-91
2023/08/20 04:34:47;;;;;;;;;;;;;;;;;;5042391;28;19924;-91
2023/08/20 04:37:14;;;;;;;;;;;;;;;;;;5040940;28;19956;-90
2023/08/20 04:39:39;;;;;;;;;;;;;;;;;;5043704;28;19929;-90
2023/08/20 04:42:05;;;;;;;;;;;;;;;;;;5036474;28;20337;-90
2023/08/20 04:44:31;;;;;;;;;;;;;;;;;;5046789;28;19963;-90
2023/08/20 04:46:57;;;;;;;;;;;;;;;;;;5042771;28;19971;-89
2023/08/20 04:49:27;;;;;;;;;;;;;;;;;;5055784;28;19932;-90
2023/08/20 04:51:53;;;;;;;;;;;;;;;;;;5044487;28;20005;-90
2023/08/20 04:54:19;;;;;;;;;;;;;;;;;;5047845;28;20004;-90
2023/08/20 04:56:45;;;;;;;;;;;;;;;;;;5044214;28;20057;-91
2023/08/20 04:59:11;;;;;;;;;;;;;;;;;;5056100;28;20235;-91
2023/08/20 05:01:37;;;;;;;;;;;;;;;;;;5040079;28;20360;-91
2023/08/20 05:04:03;;;;;;;;;;;;;;;;;;5051229;28;19928;-92
2023/08/20 05:06:29;;;;;;;;;;;;;;;;;;5053027;28;19932;-91
2023/08/20 05:08:55;;;;;;;;;;;;;;;;;;5054958;28;19928;-93
2023/08/20 05:11:21;;;;;;;;;;;;;;;;;;5051375;28;19928;-93
2023/08/20 05:13:47;;;;;;;;;;;;;;;;;;5045100;28;19940;-92
2023/08/20 05:16:13;;;;;;;;;;;;;;;;;;5044352;28;20499;-92
2023/08/20 05:18:39;;;;;;;;;;;;;;;;;;5043539;28;19932;-92
2023/08/20 05:21:05;;;;;;;;;;;;;;;;;;5058098;28;19932;-93
2023/08/20 05:23:31;;;;;;;;;;;;;;;;;;5043559;28;19935;-94
2023/08/20 05:25:57;;;;;;;;;;;;;;;;;;5035879;28;19928;-92
2023/08/20 05:28:23;;;;;;;;;;;;;;;;;;5046274;28;19932;-92
2023/08/20 05:30:49;;;;;;;;;;;;;;;;;;5060049;28;20020;-91
2023/08/20 05:33:15;;;;;;;;;;;;;;;;;;5058503;28;20083;-90
2023/08/20 05:35:40;;;;;;;;;;;;;;;;;;5049606;28;19928;-92
2023/08/20 05:38:06;;;;;;;;;;;;;;;;;;5043727;28;20411;-92
2023/08/20 05:40:32;;;;;;;;;;;;;;;;;;5045180;28;19955;-93
2023/08/20 05:43:01;;;;;;;;;;;;;;;;;;5044131;28;19936;-92
2023/08/20 05:45:27;;;;;;;;;;;;;;;;;;5043071;28;19928;-93
2023/08/20 05:47:53;;;;;;;;;;;;;;;;;;5045962;28;20327;-92
2023/08/20 05:50:18;;;;;;;;;;;;;;;;;;5060768;28;20006;-92
2023/08/20 05:52:44;;;;;;;;;;;;;;;;;;5040928;28;20828;-89
2023/08/20 05:55:11;;;;;;;;;;;;;;;;;;5058755;28;20060;-92
2023/08/20 05:57:41;;;;;;;;;;;;;;;;;;5054242;28;20015;-91
2023/08/20 06:00:07;;;;;;;;;;;;;;;;;;5039067;28;19928;-95
2023/08/20 06:02:33;;;;;;;;;;;;;;;;;;5040179;28;19947;-90
2023/08/20 06:04:59;;;;;;;;;;;;;;;;;;5056912;28;19952;-91
2023/08/20 06:07:25;;;;;;;;;;;;;;;;;;5041241;28;20358;-92
2023/08/20 06:09:50;;;;;;;;;;;;;;;;;;5039586;28;19943;-91
2023/08/20 06:12:19;;;;;;;;;;;;;;;;;;5056028;28;20376;-91
2023/08/20 06:14:45;;;;;;;;;;;;;;;;;;5037486;28;20376;-90
2023/08/20 06:17:11;;;;;;;;;;;;;;;;;;5041905;28;19933;-90
2023/08/20 06:19:37;;;;;;;;;;;;;;;;;;5044797;28;20386;-91
2023/08/20 06:22:03;;;;;;;;;;;;;;;;;;5061241;28;19928;-89
2023/08/20 06:24:29;;;;;;;;;;;;;;;;;;5049003;28;19928;-89
2023/08/20 06:26:55;;;;;;;;;;;;;;;;;;5065213;28;19928;-90
2023/08/20 06:29:21;;;;;;;;;;;;;;;;;;5048220;28;19941;-90
2023/08/20 06:31:48;;;;;;;;;;;;;;;;;;5050537;28;20019;-88
2023/08/20 06:34:14;;;;;;;;;;;;;;;;;;5051753;28;19951;-91
2023/08/20 06:36:39;;;;;;;;;;;;;;;;;;5050593;28;20482;-92
2023/08/20 06:39:06;;;;;;;;;;;;;;;;;;5065565;28;19929;-89
2023/08/20 06:41:32;;;;;;;;;;;;;;;;;;5050675;28;19929;-87
2023/08/20 06:43:58;;;;;;;;;;;;;;;;;;5049166;28;19931;-90
2023/08/20 06:46:23;;;;;;;;;;;;;;;;;;5048237;28;20029;-89
2023/08/20 06:48:49;;;;;;;;;;;;;;;;;;5049276;28;20426;-90
2023/08/20 06:51:15;;;;;;;;;;;;;;;;;;5047384;28;20525;-87
2023/08/20 06:53:41;;;;;;;;;;;;;;;;;;5065557;28;20086;-89
2023/08/20 06:56:08;;;;;;;;;;;;;;;;;;5060492;28;20368;-89
2023/08/20 06:58:34;;;;;;;;;;;;;;;;;;5060151;28;19928;-88
2023/08/20 07:01:06;;;;;;;;;;;;;;;;;;5041238;28;19982;-90
2023/08/20 07:03:33;;;;;;;;;;;;;;;;;;5047865;28;20023;-89
2023/08/20 07:05:59;;;;;;;;;;;;;;;;;;5041295;28;19950;-88
2023/08/20 07:08:24;;;;;;;;;;;;;;;;;;5041971;28;20388;-89
2023/08/20 07:10:50;;;;;;;;;;;;;;;;;;5053197;28;19932;-90
2023/08/20 07:13:16;;;;;;;;;;;;;;;;;;5046952;28;19932;-88
2023/08/20 07:15:42;;;;;;;;;;;;;;;;;;5062327;28;19928;-90
2023/08/20 07:18:08;;;;;;;;;;;;;;;;;;5061002;28;19928;-87
2023/08/20 07:20:35;;;;;;;;;;;;;;;;;;5046918;28;20019;-90
2023/08/20 07:23:01;;;;;;;;;;;;;;;;;;5041427;28;20440;-89
2023/08/20 07:25:27;;;;;;;;;;;;;;;;;;5045194;28;19928;-88
2023/08/20 07:27:58;;;;;;;;;;;;;;;;;;5044392;28;20471;-87
2023/08/20 07:30:24;;;;;;;;;;;;;;;;;;5042380;28;19925;-87
2023/08/20 07:32:50;;;;;;;;;;;;;;;;;;5060950;28;19928;-86
2023/08/20 07:35:27;;;;;;;;;;;;;;;;;;;;;
2023/08/20 07:37:53;;;;;;;;;;;;;;;;;;5063002;28;20259;-86
2023/08/20 07:40:19;;;;;;;;;;;;;;;;;;5059098;28;19986;-86
2023/08/20 07:42:45;;;;;;;;;;;;;;;;;;5058861;28;19925;-89
2023/08/20 07:45:11;;;;;;;;;;;;;;;;;;5039787;28;20374;-86
2023/08/20 07:47:37;;;;;;;;;;;;;;;;;;5056621;28;19947;-86
2023/08/20 07:50:03;;;;;;;;;;;;;;;;;;5058108;28;19936;-88
2023/08/20 07:52:29;;;;;;;;;;;;;;;;;;5058425;28;19928;-87
2023/08/20 07:54:54;;;;;;;;;;;;;;;;;;5056194;28;19935;-86
2023/08/20 07:57:21;;;;;;;;;;;;;;;;;;5044213;28;19928;-88
2023/08/20 07:59:47;;;;;;;;;;;;;;;;;;5055273;28;19974;-87
2023/08/20 08:02:13;;;;;;;;;;;;;;;;;;5038553;28;19924;-87
2023/08/20 08:04:39;;;;;;;;;;;;;;;;;;5054712;28;20015;-89
2023/08/20 08:07:05;;;;;;;;;;;;;;;;;;5036672;28;19937;-88
2023/08/20 08:09:31;;;;;;;;;;;;;;;;;;5041517;28;20279;-89
2023/08/20 08:11:57;;;;;;;;;;;;;;;;;;5051980;28;19928;-88
2023/08/20 08:14:23;;;;;;;;;;;;;;;;;;5056290;28;19932;-88
2023/08/20 08:16:50;;;;;;;;;;;;;;;;;;5041861;28;20351;-88
2023/08/20 08:19:16;;;;;;;;;;;;;;;;;;5040792;28;19991;-86
2023/08/20 08:21:42;;;;;;;;;;;;;;;;;;5057668;28;20426;-89
2023/08/20 08:24:08;;;;;;;;;;;;;;;;;;5055307;28;19986;-87
2023/08/20 08:26:34;;;;;;;;;;;;;;;;;;5040143;28;20384;-86
2023/08/20 08:29:00;;;;;;;;;;;;;;;;;;5037689;28;20002;-86
2023/08/20 08:31:26;;;;;;;;;;;;;;;;;;5053705;28;20035;-88
2023/08/20 08:33:52;;;;;;;;;;;;;;;;;;5042191;28;19935;-89
2023/08/20 08:36:18;;;;;;;;;;;;;;;;;;5043261;28;19947;-90
2023/08/20 08:38:44;;;;;;;;;;;;;;;;;;5065855;28;19929;-87
2023/08/20 08:41:10;;;;;;;;;;;;;;;;;;5065424;28;19994;-88
2023/08/20 08:43:36;;;;;;;;;;;;;;;;;;5065198;28;19936;-90
2023/08/20 08:46:02;;;;;;;;;;;;;;;;;;5044434;28;20426;-88
2023/08/20 08:48:28;;;;;;;;;;;;;;;;;;5045804;28;20366;-88
2023/08/20 08:50:54;;;;;;;;;;;;;;;;;;5042595;28;19939;-88
2023/08/20 08:53:20;;;;;;;;;;;;;;;;;;5060061;28;19928;-88
2023/08/20 08:55:45;;;;;;;;;;;;;;;;;;5056871;28;19929;-86
2023/08/20 08:58:11;;;;;;;;;;;;;;;;;;5040238;28;20080;-88
2023/08/20 09:00:37;;;;;;;;;;;;;;;;;;5039519;28;20546;-87
2023/08/20 09:03:03;;;;;;;;;;;;;;;;;;5054670;28;20157;-89
2023/08/20 09:05:29;;;;;;;;;;;;;;;;;;5037638;28;19936;-88
2023/08/20 09:07:55;;;;;;;;;;;;;;;;;;5035128;28;19929;-88
2023/08/20 09:10:21;;;;;;;;;;;;;;;;;;5041805;28;19928;-89
2023/08/20 09:12:47;;;;;;;;;;;;;;;;;;5056403;28;20354;-87
2023/08/20 09:15:13;;;;;;;;;;;;;;;;;;5054872;28;20063;-86
2023/08/20 09:17:39;;;;;;;;;;;;;;;;;;5057588;28;20134;-87
2023/08/20 09:20:05;;;;;;;;;;;;;;;;;;5054460;28;20048;-89
2023/08/20 09:22:31;;;;;;;;;;;;;;;;;;5055128;28;20002;-88
2023/08/20 09:24:57;;;;;;;;;;;;;;;;;;5035259;28;20345;-88
2023/08/20 09:27:23;;;;;;;;;;;;;;;;;;5036081;28;19978;-87
2023/08/20 09:29:49;;;;;;;;;;;;;;;;;;5036185;28;19932;-89
2023/08/20 09:32:15;;;;;;;;;;;;;;;;;;5040322;28;19955;-88
2023/08/20 09:34:41;;;;;;;;;;;;;;;;;;5038483;28;19929;-90
2023/08/20 09:37:07;;;;;;;;;;;;;;;;;;5037691;28;20287;-88
2023/08/20 09:39:33;;;;;;;;;;;;;;;;;;5056091;28;20380;-88
2023/08/20 09:41:59;;;;;;;;;;;;;;;;;;5041054;28;19931;-88
2023/08/20 09:44:25;;;;;;;;;;;;;;;;;;5055432;28;20359;-87
2023/08/20 09:46:50;;;;;;;;;;;;;;;;;;5039056;28;19928;-89
2023/08/20 09:49:16;;;;;;;;;;;;;;;;;;5055836;28;19974;-90
2023/08/20 09:51:42;;;;;;;;;;;;;;;;;;5057100;28;19924;-87
2023/08/20 09:54:08;;;;;;;;;;;;;;;;;;5038282;28;19925;-88
2023/08/20 09:56:34;;;;;;;;;;;;;;;;;;5036848;28;19929;-87
2023/08/20 09:59:00;;;;;;;;;;;;;;;;;;5052469;28;19929;-88
2023/08/20 10:01:26;;;;;;;;;;;;;;;;;;5053227;28;19917;-88
2023/08/20 10:03:52;;;;;;;;;;;;;;;;;;5040822;28;19945;-88
2023/08/20 10:06:18;;;;;;;;;;;;;;;;;;5054149;28;20369;-88
2023/08/20 10:08:45;;;;;;;;;;;;;;;;;;5064233;28;20240;-90
2023/08/20 10:11:11;;;;;;;;;;;;;;;;;;5053457;28;19980;-89
2023/08/20 10:13:37;;;;;;;;;;;;;;;;;;5039790;28;20028;-90
2023/08/20 10:16:03;;;;;;;;;;;;;;;;;;5034297;28;19991;-87
2023/08/20 10:18:29;;;;;;;;;;;;;;;;;;5055305;28;19929;-89
2023/08/20 10:20:55;;;;;;;;;;;;;;;;;;5038868;28;20368;-89
2023/08/20 10:23:23;;;;;;;;;;;;;;;;;;5034812;28;19932;-87
2023/08/20 10:25:48;;;;;;;;;;;;;;;;;;5056894;28;20454;-89
2023/08/20 10:28:15;;;;;;;;;;;;;;;;;;5042931;28;19964;-87
2023/08/20 10:30:41;;;;;;;;;;;;;;;;;;5057901;28;20014;-88
2023/08/20 10:33:07;;;;;;;;;;;;;;;;;;5042532;28;19972;-88
2023/08/20 10:35:33;;;;;;;;;;;;;;;;;;5056618;28;19975;-87
2023/08/20 10:37:58;;;;;;;;;;;;;;;;;;5056326;28;20452;-88
2023/08/20 10:40:24;;;;;;;;;;;;;;;;;;5042823;28;20039;-89
2023/08/20 10:42:50;;;;;;;;;;;;;;;;;;5059523;28;19982;-87
2023/08/20 10:45:18;;;;;;;;;;;;;;;;;;5056093;28;20411;-89
2023/08/20 10:47:44;;;;;;;;;;;;;;;;;;5057631;28;20361;-89
2023/08/20 10:50:10;;;;;;;;;;;;;;;;;;5053044;28;20380;-88
2023/08/20 10:52:36;;;;;;;;;;;;;;;;;;5042076;28;20174;-87
2023/08/20 10:55:02;;;;;;;;;;;;;;;;;;5045225;28;20200;-89
2023/08/20 10:57:31;;;;;;;;;;;;;;;;;;5042745;28;19937;-87
2023/08/20 11:00:00;;;;;;;;;;;;;;;;;;5060206;28;20288;-87
2023/08/20 11:02:26;;;;;;;;;;;;;;;;;;5058172;28;19925;-87
2023/08/20 11:04:53;;;;;;;;;;;;;;;;;;5039631;28;19981;-88
2023/08/20 11:07:19;;;;;;;;;;;;;;;;;;5060646;28;19929;-88
2023/08/20 11:09:46;;;;;;;;;;;;;;;;;;5044848;28;19928;-89
2023/08/20 11:12:12;;;;;;;;;;;;;;;;;;5044388;28;20380;-88
2023/08/20 11:14:38;;;;;;;;;;;;;;;;;;5048223;28;19931;-89
2023/08/20 11:17:04;;;;;;;;;;;;;;;;;;5058552;28;19928;-89
2023/08/20 11:19:30;;;;;;;;;;;;;;;;;;5062771;28;19929;-88
2023/08/20 11:21:56;;;;;;;;;;;;;;;;;;5057685;28;20406;-88
2023/08/20 11:24:22;;;;;;;;;;;;;;;;;;5042719;28;19939;-87
2023/08/20 11:26:48;;;;;;;;;;;;;;;;;;5040038;28;20015;-88
2023/08/20 11:29:15;;;;;;;;;;;;;;;;;;5056995;28;20359;-87
2023/08/20 11:31:41;;;;;;;;;;;;;;;;;;5045241;28;19973;-88
2023/08/20 11:34:13;;;;;;;;;;;;;;;;;;5060040;28;19936;-86
2023/08/20 11:36:40;;;;;;;;;;;;;;;;;;5055577;28;19932;-88
2023/08/20 11:39:05;;;;;;;;;;;;;;;;;;5057473;28;21453;-86
2023/08/20 11:41:31;;;;;;;;;;;;;;;;;;5056536;28;19928;-86
2023/08/20 11:43:57;;;;;;;;;;;;;;;;;;5059676;28;19982;-87
2023/08/20 11:46:23;;;;;;;;;;;;;;;;;;5062585;28;19933;-86
2023/08/20 11:48:49;;;;;;;;;;;;;;;;;;5067750;28;19928;-87
2023/08/20 11:51:15;;;;;;;;;;;;;;;;;;5064450;28;19976;-86
2023/08/20 11:53:41;;;;;;;;;;;;;;;;;;5065658;28;19928;-87
2023/08/20 11:56:07;;;;;;;;;;;;;;;;;;5064039;28;19928;-86
2023/08/20 11:58:33;;;;;;;;;;;;;;;;;;5068127;28;19924;-88
2023/08/20 12:00:59;;;;;;;;;;;;;;;;;;5043290;28;19964;-86
2023/08/20 12:03:24;;;;;;;;;;;;;;;;;;5047633;28;19939;-86
2023/08/20 12:05:50;;;;;;;;;;;;;;;;;;5065579;28;20105;-88
2023/08/20 12:08:17;;;;;;;;;;;;;;;;;;5048455;28;20011;-87
2023/08/20 12:10:43;;;;;;;;;;;;;;;;;;5064676;28;19976;-86
2023/08/20 12:13:12;;;;;;;;;;;;;;;;;;5066162;28;19983;-86
2023/08/20 12:15:38;;;;;;;;;;;;;;;;;;5063153;28;20284;-88
2023/08/20 12:18:04;;;;;;;;;;;;;;;;;;5048898;28;19939;-87
2023/08/20 12:20:31;;;;;;;;;;;;;;;;;;5064200;28;19928;-87
2023/08/20 12:22:57;;;;;;;;;;;;;;;;;;5065538;28;19947;-86
2023/08/20 12:25:26;;;;;;;;;;;;;;;;;;5057255;28;20347;-87
2023/08/20 12:27:52;;;;;;;;;;;;;;;;;;5066851;28;19932;-87
2023/08/20 12:30:17;;;;;;;;;;;;;;;;;;5067103;28;19993;-87
2023/08/20 12:32:43;;;;;;;;;;;;;;;;;;5066419;28;19928;-86
2023/08/20 12:35:10;;;;;;;;;;;;;;;;;;5064024;28;19929;-86
2023/08/20 12:37:36;;;;;;;;;;;;;;;;;;5048684;28;19928;-86
2023/08/20 12:40:03;;;;;;;;;;;;;;;;;;5064765;28;20304;-87
2023/08/20 12:42:29;;;;;;;;;;;;;;;;;;5048775;28;19925;-87
2023/08/20 12:44:55;;;;;;;;;;;;;;;;;;5064474;28;19951;-86
2023/08/20 12:47:21;;;;;;;;;;;;;;;;;;5070999;28;19935;-86
2023/08/20 12:49:47;;;;;;;;;;;;;;;;;;5067949;28;20333;-86
2023/08/20 12:52:13;;;;;;;;;;;;;;;;;;5065137;28;19968;-87
2023/08/20 12:54:39;;;;;;;;;;;;;;;;;;5047314;28;20219;-86
2023/08/20 12:57:05;;;;;;;;;;;;;;;;;;5064501;28;19977;-86
2023/08/20 12:59:31;;;;;;;;;;;;;;;;;;5066881;28;19961;-86
2023/08/20 13:01:58;;;;;;;;;;;;;;;;;;5066058;28;20272;-86
2023/08/20 13:04:24;;;;;;;;;;;;;;;;;;5066469;28;19928;-87
2023/08/20 13:06:50;;;;;;;;;;;;;;;;;;5047304;28;19934;-86
2023/08/20 13:09:15;;;;;;;;;;;;;;;;;;5063283;28;19928;-86
2023/08/20 13:11:41;;;;;;;;;;;;;;;;;;5063273;28;20083;-86
2023/08/20 13:14:07;;;;;;;;;;;;;;;;;;5062258;28;19978;-86
2023/08/20 13:16:33;;;;;;;;;;;;;;;;;;5046233;28;19928;-86
2023/08/20 13:18:59;;;;;;;;;;;;;;;;;;5063534;28;19924;-86
2023/08/20 13:21:25;;;;;;;;;;;;;;;;;;5063101;28;20311;-87
2023/08/20 13:23:51;;;;;;;;;;;;;;;;;;5063193;28;19928;-86
2023/08/20 13:26:17;;;;;;;;;;;;;;;;;;5063519;28;19931;-85
2023/08/20 13:28:43;;;;;;;;;;;;;;;;;;5064016;28;19932;-86
2023/08/20 13:31:09;;;;;;;;;;;;;;;;;;5062907;28;19929;-87
2023/08/20 13:33:35;;;;;;;;;;;;;;;;;;5046695;28;19929;-87
2023/08/20 13:36:01;;;;;;;;;;;;;;;;;;5061856;28;19928;-86
2023/08/20 13:38:27;;;;;;;;;;;;;;;;;;5062145;28;19929;-87
2023/08/20 13:40:53;;;;;;;;;;;;;;;;;;5061525;28;20269;-86
2023/08/20 13:43:19;;;;;;;;;;;;;;;;;;5047659;28;19939;-87
2023/08/20 13:45:45;;;;;;;;;;;;;;;;;;5068515;28;20300;-87
2023/08/20 13:48:11;;;;;;;;;;;;;;;;;;5065858;28;20017;-86
2023/08/20 13:50:37;;;;;;;;;;;;;;;;;;5064296;28;20335;-86
2023/08/20 13:53:03;;;;;;;;;;;;;;;;;;5046728;28;20326;-89
2023/08/20 13:55:31;;;;;;;;;;;;;;;;;;5062379;28;19928;-87
2023/08/20 13:57:56;;;;;;;;;;;;;;;;;;5060675;28;20074;-86
2023/08/20 14:00:22;;;;;;;;;;;;;;;;;;5063634;28;20015;-87
2023/08/20 14:02:48;;;;;;;;;;;;;;;;;;5052594;28;20387;-86
2023/08/20 14:05:14;;;;;;;;;;;;;;;;;;5063428;28;19929;-86
2023/08/20 14:07:41;;;;;;;;;;;;;;;;;;5063818;28;19951;-86
2023/08/20 14:10:07;;;;;;;;;;;;;;;;;;5048701;28;19997;-86
2023/08/20 14:12:33;;;;;;;;;;;;;;;;;;5064529;28;19924;-86
2023/08/20 14:14:59;;;;;;;;;;;;;;;;;;5066302;28;19932;-87
2023/08/20 14:17:25;;;;;;;;;;;;;;;;;;5063066;28;19955;-86
2023/08/20 14:19:51;;;;;;;;;;;;;;;;;;5051073;28;19929;-85
2023/08/20 14:22:17;;;;;;;;;;;;;;;;;;5069181;28;20077;-86
2023/08/20 14:24:43;;;;;;;;;;;;;;;;;;5069610;28;19928;-86
2023/08/20 14:27:09;;;;;;;;;;;;;;;;;;5065227;28;20376;-86
2023/08/20 14:29:35;;;;;;;;;;;;;;;;;;5062248;28;19932;-85
2023/08/20 14:32:01;;;;;;;;;;;;;;;;;;5063537;28;19936;-87
2023/08/20 14:34:27;;;;;;;;;;;;;;;;;;5050977;28;19929;-87
2023/08/20 14:36:53;;;;;;;;;;;;;;;;;;5061292;28;20022;-86
2023/08/20 14:39:19;;;;;;;;;;;;;;;;;;5063988;28;19931;-86
2023/08/20 14:41:45;;;;;;;;;;;;;;;;;;5051334;28;19928;-87
2023/08/20 14:44:11;;;;;;;;;;;;;;;;;;5075469;28;19928;-87
2023/08/20 14:46:38;;;;;;;;;;;;;;;;;;5066465;28;19935;-86
2023/08/20 14:49:04;;;;;;;;;;;;;;;;;;5067059;28;19926;-87
2023/08/20 14:51:34;;;;;;;;;;;;;;;;;;5052114;28;20623;-86
2023/08/20 14:54:00;;;;;;;;;;;;;;;;;;5059722;28;20389;-86
2023/08/20 14:56:26;;;;;;;;;;;;;;;;;;5059802;28;19928;-87
2023/08/20 14:58:52;;;;;;;;;;;;;;;;;;5066104;28;19962;-87
2023/08/20 15:01:18;;;;;;;;;;;;;;;;;;5078285;28;19920;-86
2023/08/20 15:03:43;;;;;;;;;;;;;;;;;;5068757;28;20001;-87
2023/08/20 15:06:09;;;;;;;;;;;;;;;;;;5065169;28;19928;-87
2023/08/20 15:08:35;;;;;;;;;;;;;;;;;;5066142;28;19969;-87
2023/08/20 15:11:03;;;;;;;;;;;;;;;;;;5070570;28;19974;-86
2023/08/20 15:13:29;;;;;;;;;;;;;;;;;;5068092;28;19964;-86
2023/08/20 15:15:58;;;;;;;;;;;;;;;;;;5064877;28;20269;-86
2023/08/20 15:18:23;;;;;;;;;;;;;;;;;;5066658;28;19928;-87
2023/08/20 15:20:49;;;;;;;;;;;;;;;;;;5062878;28;19928;-87
2023/08/20 15:23:15;;;;;;;;;;;;;;;;;;5069908;28;19928;-87
2023/08/20 15:25:41;;;;;;;;;;;;;;;;;;5066613;28;20388;-87
2023/08/20 15:28:07;;;;;;;;;;;;;;;;;;5051521;28;19939;-87
2023/08/20 15:30:33;;;;;;;;;;;;;;;;;;5066048;28;19928;-87
2023/08/20 15:32:59;;;;;;;;;;;;;;;;;;5047750;28;19928;-87
2023/08/20 15:35:28;;;;;;;;;;;;;;;;;;5048240;28;19952;-88
2023/08/20 15:37:54;;;;;;;;;;;;;;;;;;5049357;28;19928;-87
2023/08/20 15:40:20;;;;;;;;;;;;;;;;;;5048933;28;19924;-87
2023/08/20 15:42:46;;;;;;;;;;;;;;;;;;5064557;28;19928;-88
2023/08/20 15:45:12;;;;;;;;;;;;;;;;;;5064144;28;19930;-88
2023/08/20 15:47:38;;;;;;;;;;;;;;;;;;5065956;28;19928;-87
2023/08/20 15:50:04;;;;;;;;;;;;;;;;;;5067696;28;19925;-87
2023/08/20 15:52:30;;;;;;;;;;;;;;;;;;5066364;28;19929;-88
2023/08/20 15:54:56;;;;;;;;;;;;;;;;;;5046344;28;20434;-87
2023/08/20 15:57:21;;;;;;;;;;;;;;;;;;5065408;28;19989;-87
2023/08/20 15:59:47;;;;;;;;;;;;;;;;;;5066720;28;20099;-87
2023/08/20 16:02:13;;;;;;;;;;;;;;;;;;5067966;28;20042;-87
2023/08/20 16:04:39;;;;;;;;;;;;;;;;;;5066047;28;19924;-88
2023/08/20 16:07:06;;;;;;;;;;;;;;;;;;5065872;28;19928;-88
2023/08/20 16:09:32;;;;;;;;;;;;;;;;;;5073874;28;20061;-87
2023/08/20 16:11:58;;;;;;;;;;;;;;;;;;5065781;28;20385;-87
2023/08/20 16:14:24;;;;;;;;;;;;;;;;;;5064979;28;19942;-87
2023/08/20 16:16:51;;;;;;;;;;;;;;;;;;5049199;28;19929;-86
2023/08/20 16:19:17;;;;;;;;;;;;;;;;;;5050341;28;19928;-85
2023/08/20 16:21:43;;;;;;;;;;;;;;;;;;5067055;28;20433;-86
2023/08/20 16:24:11;;;;;;;;;;;;;;;;;;5064475;28;19928;-86
2023/08/20 16:26:40;;;;;;;;;;;;;;;;;;5065093;28;19951;-85
2023/08/20 16:29:06;;;;;;;;;;;;;;;;;;5045440;28;19969;-85
2023/08/20 16:31:32;;;;;;;;;;;;;;;;;;5058296;28;19928;-86
2023/08/20 16:33:58;;;;;;;;;;;;;;;;;;5063170;28;19927;-87
2023/08/20 16:36:24;;;;;;;;;;;;;;;;;;5050948;28;19932;-87
2023/08/20 16:38:50;;;;;;;;;;;;;;;;;;5058567;28;20385;-87